createdAt,value
2023-11-23T00:01:11.512Z,9.87
2023-11-23T00:03:39.758Z,8.83
2023-11-23T00:06:10.591Z,8.90
2023-11-23T00:08:42.480Z,9.40
2023-11-23T00:11:11.360Z,9.27
2023-11-23T00:13:39.539Z,9.87
2023-11-23T00:16:08.897Z,9.57
2023-11-23T00:18:37.166Z,9.43
2023-11-23T00:21:05.552Z,9.40
2023-11-23T00:23:35.157Z,9.93
2023-11-23T00:26:04.731Z,9.50
2023-11-23T00:28:31.890Z,10.03
2023-11-23T00:31:00.570Z,10.13
2023-11-23T00:33:28.879Z,9.53
2023-11-23T00:35:57.214Z,10.20
2023-11-23T00:38:25.361Z,10.40
2023-11-23T00:40:55.041Z,8.80
2023-11-23T00:43:23.219Z,8.10
2023-11-23T00:45:51.645Z,8.67
2023-11-23T00:48:20.092Z,8.70
2023-11-23T00:51:06.874Z,9.17
2023-11-23T00:53:35.160Z,8.90
2023-11-23T00:56:05.824Z,8.70
2023-11-23T00:58:34.108Z,8.27
2023-11-23T01:01:03.311Z,8.63
2023-11-23T01:03:33.568Z,8.17
2023-11-23T01:06:02.102Z,7.90
2023-11-23T01:08:30.254Z,7.93
2023-11-23T01:11:00.457Z,7.90
2023-11-23T01:13:30.520Z,7.50
2023-11-23T01:15:58.966Z,8.30
2023-11-23T01:18:27.250Z,8.60
2023-11-23T01:20:55.575Z,8.53
2023-11-23T01:23:23.883Z,8.73
2023-11-23T01:25:52.072Z,8.80
2023-11-23T01:28:20.278Z,8.17
2023-11-23T01:30:49.956Z,8.20
2023-11-23T01:33:18.217Z,8.50
2023-11-23T01:35:46.502Z,8.07
2023-11-23T01:38:15.049Z,9.13
2023-11-23T01:40:43.263Z,9.17
2023-11-23T01:43:11.558Z,8.00
2023-11-23T01:45:40.216Z,9.10
2023-11-23T01:48:11.052Z,10.70
2023-11-23T01:50:42.538Z,12.67
2023-11-23T01:53:11.539Z,14.90
2023-11-23T01:55:40.345Z,14.20
2023-11-23T01:58:10.651Z,12.57
2023-11-23T02:00:38.922Z,12.50
2023-11-23T02:03:07.720Z,11.13
2023-11-23T02:05:37.381Z,9.83
2023-11-23T02:08:06.686Z,9.07
2023-11-23T02:10:34.932Z,8.57
2023-11-23T02:13:04.384Z,8.03
2023-11-23T02:15:33.017Z,7.40
2023-11-23T02:18:02.767Z,7.77
2023-11-23T02:20:31.089Z,8.67
2023-11-23T02:23:02.025Z,8.30
2023-11-23T02:25:30.911Z,7.87
2023-11-23T02:27:59.091Z,8.90
2023-11-23T02:30:27.292Z,8.70
2023-11-23T02:32:57.674Z,9.57
2023-11-23T02:35:26.485Z,9.00
2023-11-23T02:37:54.908Z,8.87
2023-11-23T02:40:23.141Z,8.73
2023-11-23T02:42:52.854Z,9.97
2023-11-23T02:45:21.740Z,9.93
2023-11-23T02:47:50.835Z,10.97
2023-11-23T02:50:19.968Z,10.70
2023-11-23T02:52:48.394Z,10.50
2023-11-23T02:55:16.750Z,9.73
2023-11-23T02:57:44.976Z,10.60
2023-11-23T03:00:15.301Z,9.87
2023-11-23T03:02:43.554Z,10.03
2023-11-23T03:05:12.691Z,9.13
2023-11-23T03:07:41.409Z,9.73
2023-11-23T03:10:10.850Z,10.00
2023-11-23T03:12:39.593Z,10.17
2023-11-23T03:15:09.016Z,10.60
2023-11-23T03:17:38.808Z,11.80
2023-11-23T03:20:08.441Z,11.47
2023-11-23T03:22:36.759Z,13.00
2023-11-23T03:25:05.728Z,11.33
2023-11-23T03:27:34.393Z,12.97
2023-11-23T03:30:02.675Z,10.80
2023-11-23T03:32:31.860Z,10.73
2023-11-23T03:35:02.011Z,11.37
2023-11-23T03:37:30.388Z,11.20
2023-11-23T03:39:59.865Z,11.00
2023-11-23T03:42:28.001Z,13.00
2023-11-23T03:44:56.201Z,12.37
2023-11-23T03:47:24.753Z,11.37
2023-11-23T03:49:53.362Z,11.60
2023-11-23T03:52:23.068Z,10.27
2023-11-23T03:54:51.893Z,8.33
2023-11-23T03:57:20.234Z,8.13
2023-11-23T03:59:48.457Z,7.50
2023-11-23T04:02:16.913Z,7.23
2023-11-23T04:04:45.576Z,6.13
2023-11-23T04:07:14.195Z,6.27
2023-11-23T04:09:43.804Z,6.40
2023-11-23T04:12:12.081Z,7.03
2023-11-23T04:14:40.404Z,6.90
2023-11-23T04:17:08.648Z,7.10
2023-11-23T04:19:36.880Z,6.27
2023-11-23T04:22:08.054Z,6.23
2023-11-23T04:24:39.456Z,6.07
2023-11-23T04:27:09.851Z,5.33
2023-11-23T04:29:37.976Z,4.90
2023-11-23T04:32:07.645Z,5.03
2023-11-23T04:34:36.486Z,4.27
2023-11-23T04:37:06.146Z,4.30
2023-11-23T04:39:34.390Z,4.90
2023-11-23T04:42:03.586Z,4.80
2023-11-23T04:44:33.221Z,5.03
2023-11-23T04:47:01.550Z,5.43
2023-11-23T04:49:29.819Z,5.60
2023-11-23T04:51:59.012Z,4.90
2023-11-23T04:54:27.271Z,5.30
2023-11-23T04:56:55.508Z,6.10
2023-11-23T04:59:23.769Z,5.80
2023-11-23T05:01:53.510Z,5.63
2023-11-23T05:04:22.283Z,5.97
2023-11-23T05:06:50.943Z,5.60
2023-11-23T05:09:19.245Z,5.33
2023-11-23T05:11:47.527Z,5.43
2023-11-23T05:14:16.180Z,5.67
2023-11-23T05:16:44.545Z,5.30
2023-11-23T05:19:21.537Z,7.67
2023-11-23T05:21:55.789Z,11.73
2023-11-23T05:24:25.891Z,12.07
2023-11-23T05:26:55.689Z,13.30
2023-11-23T05:29:24.011Z,11.80
2023-11-23T05:31:52.236Z,11.07
2023-11-23T05:34:21.794Z,9.53
2023-11-23T05:36:49.939Z,8.27
2023-11-23T05:39:18.945Z,8.73
2023-11-23T05:41:47.543Z,9.77
2023-11-23T05:44:15.816Z,10.20
2023-11-23T05:46:44.779Z,11.57
2023-11-23T05:49:13.337Z,14.10
2023-11-23T05:51:43.035Z,13.60
2023-11-23T05:54:11.319Z,13.27
2023-11-23T05:56:40.958Z,12.90
2023-11-23T05:59:09.291Z,13.20
2023-11-23T06:01:37.492Z,10.30
2023-11-23T06:04:06.771Z,10.23
2023-11-23T06:06:35.580Z,10.03
2023-11-23T06:09:05.895Z,10.60
2023-11-23T06:11:34.619Z,9.17
2023-11-23T06:14:02.923Z,8.97
2023-11-23T06:16:31.212Z,7.03
2023-11-23T06:19:02.608Z,7.63
2023-11-23T06:21:32.081Z,10.87
2023-11-23T06:24:01.148Z,10.17
2023-11-23T06:26:31.045Z,9.50
2023-11-23T06:28:59.663Z,6.27
2023-11-23T06:31:29.339Z,6.83
2023-11-23T06:33:57.662Z,5.57
2023-11-23T06:36:26.105Z,4.17
2023-11-23T06:38:55.254Z,5.20
2023-11-23T06:41:24.299Z,5.30
2023-11-23T06:43:57.456Z,5.33
2023-11-23T06:46:26.222Z,6.07
2023-11-23T06:48:54.470Z,5.70
2023-11-23T06:51:22.890Z,6.70
2023-11-23T06:53:51.336Z,6.40
2023-11-23T06:56:19.515Z,10.27
2023-11-23T06:58:48.683Z,6.50
2023-11-23T07:01:18.579Z,5.63
2023-11-23T07:03:47.194Z,5.73
2023-11-23T07:06:17.695Z,10.00
2023-11-23T07:08:45.909Z,5.80
2023-11-23T07:11:19.346Z,5.23
2023-11-23T07:13:48.810Z,6.87
2023-11-23T07:16:18.667Z,5.83
2023-11-23T07:18:46.857Z,5.50
2023-11-23T07:21:17.050Z,5.60
2023-11-23T07:23:45.457Z,5.97
2023-11-23T07:26:13.931Z,5.47
2023-11-23T07:28:42.130Z,5.40
2023-11-23T07:31:11.205Z,6.57
2023-11-23T07:33:40.889Z,6.20
2023-11-23T07:36:10.187Z,6.53
2023-11-23T07:38:38.391Z,8.87
2023-11-23T07:41:07.971Z,8.13
2023-11-23T07:43:36.207Z,6.57
2023-11-23T07:46:04.758Z,6.93
2023-11-23T07:48:33.038Z,5.87
2023-11-23T07:51:03.952Z,6.57
2023-11-23T07:53:32.346Z,6.37
2023-11-23T07:56:00.603Z,6.47
2023-11-23T07:58:28.810Z,7.30
2023-11-23T08:00:58.339Z,6.70
2023-11-23T08:03:26.784Z,6.90
2023-11-23T08:05:56.320Z,7.40
2023-11-23T08:08:26.168Z,7.07
2023-11-23T08:10:54.377Z,6.93
2023-11-23T08:13:22.610Z,7.00
2023-11-23T08:15:50.917Z,6.67
2023-11-23T08:18:20.138Z,6.20
2023-11-23T08:20:48.377Z,6.60
2023-11-23T08:23:16.666Z,6.20
2023-11-23T08:25:46.288Z,6.17
2023-11-23T08:28:14.513Z,6.33
2023-11-23T08:30:42.819Z,6.00
2023-11-23T08:33:11.269Z,7.13
2023-11-23T08:35:39.446Z,6.00
2023-11-23T08:38:07.789Z,5.67
2023-11-23T08:41:05.721Z,6.23
2023-11-23T08:43:34.485Z,6.20
2023-11-23T08:46:04.082Z,5.77
2023-11-23T08:48:32.274Z,6.77
2023-11-23T08:51:03.022Z,7.67
2023-11-23T08:53:31.471Z,8.10
2023-11-23T08:55:59.710Z,8.67
2023-11-23T08:58:29.382Z,8.67
2023-11-23T09:00:57.579Z,9.37
2023-11-23T09:03:26.060Z,9.67
2023-11-23T09:05:54.440Z,9.70
2023-11-23T09:08:23.095Z,8.93
2023-11-23T09:10:53.301Z,10.27
2023-11-23T09:13:21.590Z,10.53
2023-11-23T09:15:51.313Z,9.93
2023-11-23T09:18:19.683Z,11.03
2023-11-23T09:20:49.218Z,10.50
2023-11-23T09:23:18.238Z,11.30
2023-11-23T09:25:47.888Z,11.00
2023-11-23T09:28:16.595Z,10.67
2023-11-23T09:30:45.292Z,8.90
2023-11-23T09:33:16.563Z,9.03
2023-11-23T09:35:46.393Z,8.43
2023-11-23T09:38:14.859Z,7.90
2023-11-23T09:40:43.663Z,8.40
2023-11-23T09:43:11.960Z,9.63
2023-11-23T09:45:40.662Z,9.00
2023-11-23T09:48:11.263Z,9.57
2023-11-23T09:50:42.674Z,10.00
2023-11-23T09:53:14.746Z,10.73
2023-11-23T09:55:43.483Z,10.43
2023-11-23T09:58:12.512Z,11.43
2023-11-23T10:00:41.256Z,10.50
2023-11-23T10:03:10.250Z,10.20
2023-11-23T10:05:40.106Z,10.17
2023-11-23T10:08:11.805Z,11.97
2023-11-23T10:10:40.479Z,12.37
2023-11-23T10:13:10.463Z,10.90
2023-11-23T10:15:39.115Z,10.07
2023-11-23T10:18:08.361Z,12.13
2023-11-23T10:20:39.992Z,12.63
2023-11-23T10:23:10.410Z,13.03
2023-11-23T10:25:38.730Z,12.23
2023-11-23T10:28:07.316Z,12.07
2023-11-23T10:30:39.361Z,12.10
2023-11-23T10:33:11.401Z,12.70
2023-11-23T10:35:43.388Z,12.57
2023-11-23T10:38:16.916Z,12.03
2023-11-23T10:40:46.755Z,11.77
2023-11-23T10:43:15.833Z,12.13
2023-11-23T10:45:47.193Z,18.07
2023-11-23T10:48:18.667Z,11.83
2023-11-23T10:50:47.981Z,12.27
2023-11-23T10:53:18.391Z,11.97
2023-11-23T10:55:50.795Z,12.83
2023-11-23T10:58:21.272Z,12.50
2023-11-23T11:00:50.255Z,12.67
2023-11-23T11:03:22.284Z,12.90
2023-11-23T11:05:54.583Z,13.03
2023-11-23T11:08:28.282Z,12.63
2023-11-23T11:10:56.631Z,12.50
2023-11-23T11:13:26.723Z,13.13
2023-11-23T11:15:58.307Z,13.30
2023-11-23T11:18:28.011Z,12.67
2023-11-23T11:21:11.585Z,13.40
2023-11-23T11:23:42.926Z,13.10
2023-11-23T11:26:13.016Z,12.60
2023-11-23T11:28:41.974Z,13.33
2023-11-23T11:31:16.345Z,13.63
2023-11-23T11:33:44.688Z,13.93
2023-11-23T11:36:14.557Z,13.90
2023-11-23T11:38:55.682Z,14.23
2023-11-23T11:41:27.620Z,14.53
2023-11-23T11:43:56.905Z,14.50
2023-11-23T11:46:25.157Z,14.37
2023-11-23T11:48:53.395Z,14.67
2023-11-23T11:51:21.705Z,13.90
2023-11-23T11:53:51.680Z,14.43
2023-11-23T11:56:20.573Z,14.83
2023-11-23T11:58:48.979Z,15.43
2023-11-23T12:01:17.285Z,16.60
2023-11-23T12:03:47.029Z,15.97
2023-11-23T12:06:16.361Z,16.30
2023-11-23T12:08:46.080Z,15.97
2023-11-23T12:11:28.074Z,17.00
2023-11-23T12:13:58.531Z,16.07
2023-11-23T12:16:35.267Z,16.10
2023-11-23T12:19:03.741Z,16.90
2023-11-23T12:21:32.524Z,16.33
2023-11-23T12:24:01.901Z,17.13
2023-11-23T12:26:34.867Z,16.10
2023-11-23T12:29:04.175Z,17.80
2023-11-23T12:31:33.798Z,14.87
2023-11-23T12:34:02.471Z,16.07
2023-11-23T12:36:30.641Z,16.27
2023-11-23T12:38:59.190Z,16.43
2023-11-23T12:41:27.334Z,16.30
2023-11-23T12:43:56.988Z,16.33
2023-11-23T12:46:25.342Z,17.93
2023-11-23T12:48:53.627Z,17.27
2023-11-23T12:51:21.850Z,17.13
2023-11-23T12:53:49.943Z,14.73
2023-11-23T12:56:18.248Z,15.37
2023-11-23T12:58:46.458Z,17.00
2023-11-23T13:01:16.045Z,15.93
2023-11-23T13:03:45.022Z,15.97
2023-11-23T13:06:16.694Z,16.73
2023-11-23T13:08:45.083Z,16.10
2023-11-23T13:11:14.084Z,18.23
2023-11-23T13:13:43.646Z,16.87
2023-11-23T13:16:11.879Z,13.63
2023-11-23T13:18:58.323Z,14.70
2023-11-23T13:21:30.860Z,14.50
2023-11-23T13:24:00.959Z,15.00
2023-11-23T13:26:29.815Z,14.53
2023-11-23T13:28:58.690Z,15.17
2023-11-23T13:31:28.933Z,15.27
2023-11-23T13:33:58.747Z,14.30
2023-11-23T13:36:28.544Z,14.83
2023-11-23T13:38:57.693Z,14.27
2023-11-23T13:41:26.057Z,15.23
2023-11-23T13:43:56.016Z,17.90
2023-11-23T13:46:26.098Z,16.57
2023-11-23T13:48:54.547Z,16.63
2023-11-23T13:51:24.937Z,16.80
2023-11-23T13:53:54.106Z,16.83
2023-11-23T13:56:24.033Z,18.47
2023-11-23T13:58:53.168Z,19.17
2023-11-23T14:01:21.549Z,21.80
2023-11-23T14:03:50.386Z,22.80
2023-11-23T14:06:19.160Z,21.37
2023-11-23T14:08:48.911Z,21.87
2023-11-23T14:11:19.548Z,21.73
2023-11-23T14:13:48.482Z,21.13
2023-11-23T14:16:16.722Z,23.90
2023-11-23T14:18:44.884Z,22.60
2023-11-23T14:21:13.589Z,21.70
2023-11-23T14:23:42.199Z,21.73
2023-11-23T14:26:12.537Z,20.03
2023-11-23T14:28:40.844Z,20.10
2023-11-23T14:31:12.671Z,21.20
2023-11-23T14:33:41.212Z,19.70
2023-11-23T14:36:10.407Z,26.60
2023-11-23T14:38:39.042Z,32.83
2023-11-23T14:41:09.453Z,24.77
2023-11-23T14:43:39.220Z,21.97
2023-11-23T14:46:08.877Z,22.67
2023-11-23T14:48:37.491Z,22.43
2023-11-23T14:51:06.206Z,22.83
2023-11-23T14:53:34.705Z,24.43
2023-11-23T14:56:03.900Z,24.13
2023-11-23T14:58:32.973Z,23.90
2023-11-23T15:01:02.597Z,26.47
2023-11-23T15:03:33.143Z,25.93
2023-11-23T15:06:02.054Z,24.83
2023-11-23T15:08:30.455Z,25.03
2023-11-23T15:10:58.731Z,29.47
2023-11-23T15:13:35.820Z,27.67
2023-11-23T15:16:09.402Z,26.37
2023-11-23T15:18:38.487Z,24.93
2023-11-23T15:21:07.111Z,26.93
2023-11-23T15:23:35.780Z,26.63
2023-11-23T15:26:04.910Z,29.53
2023-11-23T15:28:33.185Z,27.13
2023-11-23T15:31:01.788Z,27.60
2023-11-23T15:33:32.140Z,30.20
2023-11-23T15:36:00.380Z,32.97
2023-11-23T15:38:28.704Z,39.13
2023-11-23T15:40:57.261Z,36.87
2023-11-23T15:43:25.591Z,29.37
2023-11-23T15:45:54.820Z,28.37
2023-11-23T15:48:23.405Z,26.63
2023-11-23T15:50:52.944Z,24.03
2023-11-23T15:53:22.360Z,23.30
2023-11-23T15:55:52.210Z,24.30
2023-11-23T15:58:20.617Z,23.57
2023-11-23T16:00:48.835Z,23.53
2023-11-23T16:03:17.210Z,22.87
2023-11-23T16:05:45.762Z,22.60
2023-11-23T16:08:16.526Z,23.23
2023-11-23T16:10:44.723Z,24.23
2023-11-23T16:13:22.145Z,24.33
2023-11-23T16:15:50.999Z,25.13
2023-11-23T16:18:19.944Z,24.40
2023-11-23T16:20:48.465Z,25.30
2023-11-23T16:23:18.482Z,26.10
2023-11-23T16:25:46.827Z,24.83
2023-11-23T16:28:15.385Z,27.70
2023-11-23T16:30:44.198Z,25.17
2023-11-23T16:33:12.557Z,26.67
2023-11-23T16:35:40.833Z,30.27
2023-11-23T16:38:10.311Z,30.03
2023-11-23T16:40:39.921Z,28.67
2023-11-23T16:43:08.521Z,27.17
2023-11-23T16:45:36.939Z,27.10
2023-11-23T16:48:07.794Z,26.07
2023-11-23T16:50:36.316Z,26.37
2023-11-23T16:53:04.785Z,27.07
2023-11-23T16:55:33.525Z,26.80
2023-11-23T16:58:06.869Z,25.90
2023-11-23T17:00:35.565Z,38.20
2023-11-23T17:03:06.333Z,30.60
2023-11-23T17:05:34.932Z,27.13
2023-11-23T17:08:06.199Z,25.17
2023-11-23T17:10:34.870Z,24.20
2023-11-23T17:13:05.918Z,23.83
2023-11-23T17:15:34.183Z,25.20
2023-11-23T17:18:02.428Z,23.73
2023-11-23T17:20:30.855Z,22.43
2023-11-23T17:23:02.785Z,24.13
2023-11-23T17:25:31.891Z,24.40
2023-11-23T17:28:00.147Z,23.47
2023-11-23T17:30:30.120Z,25.23
2023-11-23T17:32:58.395Z,24.57
2023-11-23T17:35:27.269Z,27.63
2023-11-23T17:37:57.434Z,25.17
2023-11-23T17:40:26.204Z,26.83
2023-11-23T17:42:54.514Z,25.20
2023-11-23T17:45:22.971Z,25.90
2023-11-23T17:47:53.479Z,25.23
2023-11-23T17:50:21.868Z,26.40
2023-11-23T17:52:50.112Z,27.13
2023-11-23T17:55:18.673Z,29.67
2023-11-23T17:57:46.957Z,28.37
2023-11-23T18:00:16.640Z,30.47
2023-11-23T18:02:45.265Z,28.70
2023-11-23T18:05:15.672Z,29.43
2023-11-23T18:07:43.985Z,27.83
2023-11-23T18:10:16.116Z,26.00
2023-11-23T18:12:45.683Z,26.17
2023-11-23T18:15:14.342Z,25.93
2023-11-23T18:17:43.472Z,27.40
2023-11-23T18:20:14.541Z,26.67
2023-11-23T18:22:44.543Z,27.60
2023-11-23T18:25:13.990Z,28.83
2023-11-23T18:27:42.144Z,27.53
2023-11-23T18:30:13.381Z,29.00
2023-11-23T18:32:42.411Z,28.50
2023-11-23T18:35:12.201Z,24.13
2023-11-23T18:37:40.521Z,25.93
2023-11-23T18:40:14.544Z,26.77
2023-11-23T18:42:44.212Z,23.90
2023-11-23T18:45:14.232Z,25.90
2023-11-23T18:47:43.667Z,22.33
2023-11-23T18:50:12.903Z,23.57
2023-11-23T18:52:41.665Z,22.50
2023-11-23T18:55:16.110Z,22.70
2023-11-23T18:57:45.081Z,22.30
2023-11-23T19:00:14.722Z,20.73
2023-11-23T19:02:43.748Z,21.80
2023-11-23T19:05:16.565Z,21.47
2023-11-23T19:07:45.729Z,22.10
2023-11-23T19:10:17.146Z,23.83
2023-11-23T19:12:51.135Z,23.33
2023-11-23T19:15:21.657Z,24.13
2023-11-23T19:17:51.776Z,24.80
2023-11-23T19:20:23.297Z,24.30
2023-11-23T19:22:52.036Z,24.03
2023-11-23T19:25:26.052Z,25.03
2023-11-23T19:27:57.040Z,23.53
2023-11-23T19:30:27.136Z,19.43
2023-11-23T19:32:57.282Z,18.67
2023-11-23T19:35:27.055Z,20.80
2023-11-23T19:37:56.074Z,21.10
2023-11-23T19:40:27.033Z,20.13
2023-11-23T19:42:59.416Z,19.30
2023-11-23T19:45:31.586Z,19.87
2023-11-23T19:48:00.537Z,20.87
2023-11-23T19:50:30.103Z,21.07
2023-11-23T19:53:01.428Z,23.40
2023-11-23T19:55:31.006Z,21.43
2023-11-23T19:58:01.688Z,21.13
2023-11-23T20:00:31.896Z,21.17
2023-11-23T20:03:00.762Z,20.77
2023-11-23T20:05:29.211Z,22.23
2023-11-23T20:08:00.557Z,21.73
2023-11-23T20:10:30.348Z,21.97
2023-11-23T20:13:00.727Z,24.60
2023-11-23T20:15:29.661Z,22.03
2023-11-23T20:17:57.969Z,22.97
2023-11-23T20:20:26.208Z,23.80
2023-11-23T20:22:54.370Z,23.07
2023-11-23T20:25:22.928Z,23.50
2023-11-23T20:27:52.821Z,25.43
2023-11-23T20:30:21.308Z,25.60
2023-11-23T20:32:50.035Z,24.20
2023-11-23T20:35:19.401Z,25.43
2023-11-23T20:37:47.727Z,27.50
2023-11-23T20:40:15.948Z,24.90
2023-11-23T20:42:45.111Z,25.17
2023-11-23T20:45:15.096Z,25.27
2023-11-23T20:47:44.567Z,23.37
2023-11-23T20:50:13.154Z,24.10
2023-11-23T20:52:41.826Z,24.70
2023-11-23T20:55:14.006Z,24.77
2023-11-23T20:57:43.750Z,26.20
2023-11-23T21:00:17.494Z,27.03
2023-11-23T21:02:46.943Z,26.30
2023-11-23T21:05:17.494Z,26.33
2023-11-23T21:07:46.430Z,26.43
2023-11-23T21:10:17.027Z,25.43
2023-11-23T21:12:45.506Z,23.60
2023-11-23T21:15:15.230Z,24.00
2023-11-23T21:17:44.806Z,23.47
2023-11-23T21:20:14.671Z,22.80
2023-11-23T21:22:45.397Z,23.27
2023-11-23T21:25:13.721Z,23.00
2023-11-23T21:27:43.559Z,23.00
2023-11-23T21:30:12.713Z,25.30
2023-11-23T21:32:43.120Z,23.03
2023-11-23T21:35:11.716Z,23.17
2023-11-23T21:37:42.866Z,22.30
2023-11-23T21:40:13.259Z,22.37
2023-11-23T21:42:41.559Z,21.23
2023-11-23T21:45:10.574Z,23.67
2023-11-23T21:47:40.108Z,23.00
2023-11-23T21:50:12.093Z,22.10
2023-11-23T21:52:40.885Z,24.47
2023-11-23T21:55:12.475Z,22.00
2023-11-23T21:57:41.383Z,22.63
2023-11-23T22:00:10.743Z,21.83
2023-11-23T22:02:41.122Z,25.40
2023-11-23T22:05:14.817Z,24.90
2023-11-23T22:07:43.134Z,22.63
2023-11-23T22:10:11.479Z,24.10
2023-11-23T22:12:40.905Z,24.97
2023-11-23T22:15:09.859Z,21.70
2023-11-23T22:17:38.921Z,22.47
2023-11-23T22:20:09.594Z,24.33
2023-11-23T22:22:40.027Z,25.80
2023-11-23T22:25:10.380Z,22.23
2023-11-23T22:27:40.601Z,24.17
2023-11-23T22:30:11.133Z,23.73
2023-11-23T22:32:42.604Z,24.70
2023-11-23T22:35:12.340Z,27.17
2023-11-23T22:37:42.517Z,24.50
2023-11-23T22:40:12.336Z,26.20
2023-11-23T22:42:41.288Z,25.70
2023-11-23T22:45:11.234Z,25.83
2023-11-23T22:47:39.835Z,24.07
2023-11-23T22:50:10.287Z,22.87
2023-11-23T22:52:39.164Z,23.40
2023-11-23T22:55:09.955Z,22.17
2023-11-23T22:57:38.334Z,24.93
2023-11-23T23:00:25.711Z,30.43
2023-11-23T23:02:54.513Z,25.07
2023-11-23T23:05:27.748Z,24.53
2023-11-23T23:07:57.874Z,24.93
2023-11-23T23:10:31.995Z,22.43
2023-11-23T23:13:00.244Z,22.27
2023-11-23T23:15:28.536Z,19.70
2023-11-23T23:17:57.308Z,20.10
2023-11-23T23:20:25.880Z,21.63
2023-11-23T23:22:54.454Z,22.37
2023-11-23T23:25:22.884Z,21.63
2023-11-23T23:27:53.179Z,21.33
2023-11-23T23:30:21.959Z,19.37
2023-11-23T23:32:50.812Z,20.93
2023-11-23T23:35:19.584Z,20.77
2023-11-23T23:37:47.842Z,19.80
2023-11-23T23:40:16.033Z,19.60
2023-11-23T23:42:44.379Z,18.47
2023-11-23T23:45:14.135Z,21.20
2023-11-23T23:47:45.736Z,21.37
2023-11-23T23:50:14.063Z,21.27
2023-11-23T23:52:42.324Z,22.40
2023-11-23T23:55:10.873Z,19.47
2023-11-23T23:57:39.191Z,22.43
